sensor_id;sensor_type;location;lat;lon;timestamp;temperature;humidity
41060;DHT22;26811;53.160;8.202;2023-02-12T00:00:24;7.50;99.90
41060;DHT22;26811;53.160;8.202;2023-02-12T00:05:25;7.50;99.90
41060;DHT22;26811;53.160;8.202;2023-02-12T00:10:25;7.40;99.90
41060;DHT22;26811;53.160;8.202;2023-02-12T00:15:26;7.40;99.90
41060;DHT22;26811;53.160;8.202;2023-02-12T00:20:26;7.30;99.90
41060;DHT22;26811;53.160;8.202;2023-02-12T00:25:27;7.30;99.90
41060;DHT22;26811;53.160;8.202;2023-02-12T00:30:27;7.30;99.90
41060;DHT22;26811;53.160;8.202;2023-02-12T00:35:28;7.30;99.90
41060;DHT22;26811;53.160;8.202;2023-02-12T00:40:28;7.30;99.90
41060;DHT22;26811;53.160;8.202;2023-02-12T00:45:32;7.30;99.90
41060;DHT22;26811;53.160;8.202;2023-02-12T00:50:32;7.30;99.90
41060;DHT22;26811;53.160;8.202;2023-02-12T00:55:33;7.20;99.90
41060;DHT22;26811;53.160;8.202;2023-02-12T01:00:34;7.20;99.90
41060;DHT22;26811;53.160;8.202;2023-02-12T01:05:34;7.20;99.90
41060;DHT22;26811;53.160;8.202;2023-02-12T01:10:35;7.10;99.90
41060;DHT22;26811;53.160;8.202;2023-02-12T01:15:36;7.10;99.90
41060;DHT22;26811;53.160;8.202;2023-02-12T01:20:38;7.10;99.90
41060;DHT22;26811;53.160;8.202;2023-02-12T01:25:39;7.10;99.90
41060;DHT22;26811;53.160;8.202;2023-02-12T01:30:39;7.10;99.90
41060;DHT22;26811;53.160;8.202;2023-02-12T01:35:40;7.10;99.90
41060;DHT22;26811;53.160;8.202;2023-02-12T01:40:40;7.10;99.90
41060;DHT22;26811;53.160;8.202;2023-02-12T01:45:49;7.10;99.90
41060;DHT22;26811;53.160;8.202;2023-02-12T01:50:53;7.10;99.90
41060;DHT22;26811;53.160;8.202;2023-02-12T01:55:57;7.10;99.90
41060;DHT22;26811;53.160;8.202;2023-02-12T02:00:59;7.10;99.90
41060;DHT22;26811;53.160;8.202;2023-02-12T02:06:05;7.10;99.90
41060;DHT22;26811;53.160;8.202;2023-02-12T02:11:08;7.10;99.90
41060;DHT22;26811;53.160;8.202;2023-02-12T02:16:34;7.10;99.90
41060;DHT22;26811;53.160;8.202;2023-02-12T02:21:50;7.10;99.90
41060;DHT22;26811;53.160;8.202;2023-02-12T02:32:22;7.10;99.90
41060;DHT22;26811;53.160;8.202;2023-02-12T02:37:26;7.10;99.90
41060;DHT22;26811;53.160;8.202;2023-02-12T02:47:41;7.00;99.90
41060;DHT22;26811;53.160;8.202;2023-02-12T02:52:58;7.00;99.90
41060;DHT22;26811;53.160;8.202;2023-02-12T02:58:05;7.00;99.90
41060;DHT22;26811;53.160;8.202;2023-02-12T03:03:14;7.00;99.90
41060;DHT22;26811;53.160;8.202;2023-02-12T03:08:21;7.00;99.90
41060;DHT22;26811;53.160;8.202;2023-02-12T03:13:27;7.00;99.90
41060;DHT22;26811;53.160;8.202;2023-02-12T03:18:49;7.00;99.90
41060;DHT22;26811;53.160;8.202;2023-02-12T03:29:01;7.00;99.90
41060;DHT22;26811;53.160;8.202;2023-02-12T03:39:57;7.00;99.90
41060;DHT22;26811;53.160;8.202;2023-02-12T03:50:31;7.00;99.90
41060;DHT22;26811;53.160;8.202;2023-02-12T03:55:36;7.00;99.90
41060;DHT22;26811;53.160;8.202;2023-02-12T04:00:38;7.00;99.90
41060;DHT22;26811;53.160;8.202;2023-02-12T04:05:39;7.00;99.90
41060;DHT22;26811;53.160;8.202;2023-02-12T04:11:35;7.00;99.90
41060;DHT22;26811;53.160;8.202;2023-02-12T04:16:24;7.00;99.90
41060;DHT22;26811;53.160;8.202;2023-02-12T04:21:43;7.10;99.90
41060;DHT22;26811;53.160;8.202;2023-02-12T04:32:23;7.10;99.90
41060;DHT22;26811;53.160;8.202;2023-02-12T04:37:44;7.00;99.90
41060;DHT22;26811;53.160;8.202;2023-02-12T04:42:49;7.10;99.90
41060;DHT22;26811;53.160;8.202;2023-02-12T04:47:51;7.10;99.90
41060;DHT22;26811;53.160;8.202;2023-02-12T04:52:51;7.00;99.90
41060;DHT22;26811;53.160;8.202;2023-02-12T04:57:52;7.00;99.90
41060;DHT22;26811;53.160;8.202;2023-02-12T05:02:52;7.10;99.90
41060;DHT22;26811;53.160;8.202;2023-02-12T05:07:53;7.10;99.90
41060;DHT22;26811;53.160;8.202;2023-02-12T05:12:54;7.00;99.90
41060;DHT22;26811;53.160;8.202;2023-02-12T05:17:54;7.00;99.90
41060;DHT22;26811;53.160;8.202;2023-02-12T05:22:55;7.00;99.90
41060;DHT22;26811;53.160;8.202;2023-02-12T05:27:55;7.00;99.90
41060;DHT22;26811;53.160;8.202;2023-02-12T05:32:56;7.00;99.90
41060;DHT22;26811;53.160;8.202;2023-02-12T05:37:57;7.00;99.90
41060;DHT22;26811;53.160;8.202;2023-02-12T05:42:57;7.00;99.90
41060;DHT22;26811;53.160;8.202;2023-02-12T05:47:58;7.00;99.90
41060;DHT22;26811;53.160;8.202;2023-02-12T05:52:59;7.10;99.90
41060;DHT22;26811;53.160;8.202;2023-02-12T05:58:00;7.00;99.90
41060;DHT22;26811;53.160;8.202;2023-02-12T06:03:00;7.00;99.90
41060;DHT22;26811;53.160;8.202;2023-02-12T06:08:01;7.00;99.90
41060;DHT22;26811;53.160;8.202;2023-02-12T06:13:02;7.00;99.90
41060;DHT22;26811;53.160;8.202;2023-02-12T06:18:02;6.90;99.90
41060;DHT22;26811;53.160;8.202;2023-02-12T06:23:03;6.90;99.90
41060;DHT22;26811;53.160;8.202;2023-02-12T06:28:04;6.90;99.90
41060;DHT22;26811;53.160;8.202;2023-02-12T06:33:04;6.90;99.90
41060;DHT22;26811;53.160;8.202;2023-02-12T06:38:05;6.90;99.90
41060;DHT22;26811;53.160;8.202;2023-02-12T06:43:06;6.90;99.90
41060;DHT22;26811;53.160;8.202;2023-02-12T06:48:06;6.90;99.90
41060;DHT22;26811;53.160;8.202;2023-02-12T06:53:07;6.90;99.90
41060;DHT22;26811;53.160;8.202;2023-02-12T06:58:07;6.90;99.90
41060;DHT22;26811;53.160;8.202;2023-02-12T07:03:08;6.90;99.90
41060;DHT22;26811;53.160;8.202;2023-02-12T07:08:09;6.90;99.90
41060;DHT22;26811;53.160;8.202;2023-02-12T07:13:09;7.00;99.90
41060;DHT22;26811;53.160;8.202;2023-02-12T07:18:10;7.00;99.90
41060;DHT22;26811;53.160;8.202;2023-02-12T07:23:11;7.00;99.90
41060;DHT22;26811;53.160;8.202;2023-02-12T07:28:12;7.00;99.90
41060;DHT22;26811;53.160;8.202;2023-02-12T07:33:12;7.10;99.90
41060;DHT22;26811;53.160;8.202;2023-02-12T07:38:13;7.10;99.90
41060;DHT22;26811;53.160;8.202;2023-02-12T07:43:13;7.10;99.90
41060;DHT22;26811;53.160;8.202;2023-02-12T07:48:14;7.10;99.90
41060;DHT22;26811;53.160;8.202;2023-02-12T07:53:14;7.10;99.90
41060;DHT22;26811;53.160;8.202;2023-02-12T07:58:15;7.20;99.90
41060;DHT22;26811;53.160;8.202;2023-02-12T08:03:15;7.20;99.90
41060;DHT22;26811;53.160;8.202;2023-02-12T08:08:16;7.30;99.90
41060;DHT22;26811;53.160;8.202;2023-02-12T08:13:16;7.40;99.90
41060;DHT22;26811;53.160;8.202;2023-02-12T08:18:17;7.40;99.90
41060;DHT22;26811;53.160;8.202;2023-02-12T08:23:17;7.50;99.90
41060;DHT22;26811;53.160;8.202;2023-02-12T08:28:18;7.50;99.90
41060;DHT22;26811;53.160;8.202;2023-02-12T08:33:21;7.50;99.90
41060;DHT22;26811;53.160;8.202;2023-02-12T08:38:22;7.60;99.90
41060;DHT22;26811;53.160;8.202;2023-02-12T08:43:22;7.60;99.90
41060;DHT22;26811;53.160;8.202;2023-02-12T08:48:23;7.70;99.90
41060;DHT22;26811;53.160;8.202;2023-02-12T08:53:23;7.90;99.90
41060;DHT22;26811;53.160;8.202;2023-02-12T08:58:24;7.90;99.90
41060;DHT22;26811;53.160;8.202;2023-02-12T09:03:25;7.90;99.90
41060;DHT22;26811;53.160;8.202;2023-02-12T09:08:25;8.00;99.90
41060;DHT22;26811;53.160;8.202;2023-02-12T09:13:26;8.00;99.90
41060;DHT22;26811;53.160;8.202;2023-02-12T09:18:27;8.10;99.90
41060;DHT22;26811;53.160;8.202;2023-02-12T09:23:27;8.00;99.90
41060;DHT22;26811;53.160;8.202;2023-02-12T09:28:28;8.10;99.90
41060;DHT22;26811;53.160;8.202;2023-02-12T09:33:28;8.20;99.90
41060;DHT22;26811;53.160;8.202;2023-02-12T09:38:29;8.30;99.90
41060;DHT22;26811;53.160;8.202;2023-02-12T09:43:32;8.40;99.90
41060;DHT22;26811;53.160;8.202;2023-02-12T09:49:19;8.40;99.90
41060;DHT22;26811;53.160;8.202;2023-02-12T09:54:17;8.40;99.90
41060;DHT22;26811;53.160;8.202;2023-02-12T10:04:32;8.40;99.90
41060;DHT22;26811;53.160;8.202;2023-02-12T10:09:54;8.30;99.90
41060;DHT22;26811;53.160;8.202;2023-02-12T10:15:03;8.20;99.90
41060;DHT22;26811;53.160;8.202;2023-02-12T10:20:32;8.20;99.90
41060;DHT22;26811;53.160;8.202;2023-02-12T10:25:55;8.30;99.90
41060;DHT22;26811;53.160;8.202;2023-02-12T10:31:05;8.50;99.90
41060;DHT22;26811;53.160;8.202;2023-02-12T10:41:23;8.50;99.90
41060;DHT22;26811;53.160;8.202;2023-02-12T10:46:29;8.50;99.90
41060;DHT22;26811;53.160;8.202;2023-02-12T10:51:55;8.40;99.90
41060;DHT22;26811;53.160;8.202;2023-02-12T10:56:59;8.30;99.90
41060;DHT22;26811;53.160;8.202;2023-02-12T11:02:19;8.40;99.90
41060;DHT22;26811;53.160;8.202;2023-02-12T11:07:21;8.50;99.90
41060;DHT22;26811;53.160;8.202;2023-02-12T11:12:37;8.60;99.90
41060;DHT22;26811;53.160;8.202;2023-02-12T11:18:00;8.70;99.90
41060;DHT22;26811;53.160;8.202;2023-02-12T11:23:04;8.60;99.90
41060;DHT22;26811;53.160;8.202;2023-02-12T11:28:17;8.70;99.90
41060;DHT22;26811;53.160;8.202;2023-02-12T11:38:27;9.00;99.90
41060;DHT22;26811;53.160;8.202;2023-02-12T11:43:29;9.00;99.90
41060;DHT22;26811;53.160;8.202;2023-02-12T11:48:34;9.00;99.90
41060;DHT22;26811;53.160;8.202;2023-02-12T11:53:39;9.00;99.90
41060;DHT22;26811;53.160;8.202;2023-02-12T11:58:40;9.00;99.90
41060;DHT22;26811;53.160;8.202;2023-02-12T12:03:52;8.90;99.90
41060;DHT22;26811;53.160;8.202;2023-02-12T12:09:12;8.90;99.90
41060;DHT22;26811;53.160;8.202;2023-02-12T12:14:35;8.80;99.90
41060;DHT22;26811;53.160;8.202;2023-02-12T12:35:57;8.80;99.90
41060;DHT22;26811;53.160;8.202;2023-02-12T12:41:06;8.90;99.90
41060;DHT22;26811;53.160;8.202;2023-02-12T12:46:54;8.90;99.90
41060;DHT22;26811;53.160;8.202;2023-02-12T12:57:35;8.90;99.90
41060;DHT22;26811;53.160;8.202;2023-02-12T13:13:36;9.10;99.90
41060;DHT22;26811;53.160;8.202;2023-02-12T13:24:19;9.50;99.90
41060;DHT22;26811;53.160;8.202;2023-02-12T13:29:33;9.70;99.90
41060;DHT22;26811;53.160;8.202;2023-02-12T13:34:35;9.90;99.90
41060;DHT22;26811;53.160;8.202;2023-02-12T13:39:41;10.10;99.90
41060;DHT22;26811;53.160;8.202;2023-02-12T13:55:33;10.50;99.90
41060;DHT22;26811;53.160;8.202;2023-02-12T14:05:47;10.20;99.90
41060;DHT22;26811;53.160;8.202;2023-02-12T14:11:03;10.10;99.90
41060;DHT22;26811;53.160;8.202;2023-02-12T14:26:35;9.70;99.90
41060;DHT22;26811;53.160;8.202;2023-02-12T14:31:37;9.70;99.90
41060;DHT22;26811;53.160;8.202;2023-02-12T14:36:43;9.60;99.90
41060;DHT22;26811;53.160;8.202;2023-02-12T14:41:52;9.60;99.90
41060;DHT22;26811;53.160;8.202;2023-02-12T14:46:55;9.60;99.90
41060;DHT22;26811;53.160;8.202;2023-02-12T15:02:35;9.70;99.90
41060;DHT22;26811;53.160;8.202;2023-02-12T15:07:47;9.60;99.90
41060;DHT22;26811;53.160;8.202;2023-02-12T15:12:52;9.50;99.90
41060;DHT22;26811;53.160;8.202;2023-02-12T15:17:58;9.50;99.90
41060;DHT22;26811;53.160;8.202;2023-02-12T15:22:59;9.40;99.90
41060;DHT22;26811;53.160;8.202;2023-02-12T15:28:20;9.30;99.90
41060;DHT22;26811;53.160;8.202;2023-02-12T15:33:34;9.20;99.90
41060;DHT22;26811;53.160;8.202;2023-02-12T15:38:39;9.20;99.90
41060;DHT22;26811;53.160;8.202;2023-02-12T15:43:40;9.10;99.90
41060;DHT22;26811;53.160;8.202;2023-02-12T15:48:41;9.00;99.90
41060;DHT22;26811;53.160;8.202;2023-02-12T15:53:42;9.00;99.90
41060;DHT22;26811;53.160;8.202;2023-02-12T15:58:51;8.90;99.90
41060;DHT22;26811;53.160;8.202;2023-02-12T16:04:06;8.90;99.90
41060;DHT22;26811;53.160;8.202;2023-02-12T16:09:14;8.90;99.90
41060;DHT22;26811;53.160;8.202;2023-02-12T16:14:27;8.80;99.90
41060;DHT22;26811;53.160;8.202;2023-02-12T16:19:31;8.80;99.90
41060;DHT22;26811;53.160;8.202;2023-02-12T16:24:38;8.70;99.90
41060;DHT22;26811;53.160;8.202;2023-02-12T16:29:49;8.70;99.90
41060;DHT22;26811;53.160;8.202;2023-02-12T16:34:59;8.70;99.90
41060;DHT22;26811;53.160;8.202;2023-02-12T16:45:36;8.60;99.90
41060;DHT22;26811;53.160;8.202;2023-02-12T16:50:53;8.60;99.90
41060;DHT22;26811;53.160;8.202;2023-02-12T16:55:54;8.50;99.90
41060;DHT22;26811;53.160;8.202;2023-02-12T17:00:56;8.50;99.90
41060;DHT22;26811;53.160;8.202;2023-02-12T17:05:57;8.50;99.90
41060;DHT22;26811;53.160;8.202;2023-02-12T17:10:57;8.40;99.90
41060;DHT22;26811;53.160;8.202;2023-02-12T17:15:59;8.40;99.90
41060;DHT22;26811;53.160;8.202;2023-02-12T17:21:05;8.40;99.90
41060;DHT22;26811;53.160;8.202;2023-02-12T17:26:06;8.30;99.90
41060;DHT22;26811;53.160;8.202;2023-02-12T17:31:07;8.30;99.90
41060;DHT22;26811;53.160;8.202;2023-02-12T17:36:09;8.20;99.90
41060;DHT22;26811;53.160;8.202;2023-02-12T17:41:10;8.20;99.90
41060;DHT22;26811;53.160;8.202;2023-02-12T17:46:20;8.20;99.90
41060;DHT22;26811;53.160;8.202;2023-02-12T17:51:21;8.10;99.90
41060;DHT22;26811;53.160;8.202;2023-02-12T17:56:22;8.10;99.90
41060;DHT22;26811;53.160;8.202;2023-02-12T18:01:25;8.10;99.90
41060;DHT22;26811;53.160;8.202;2023-02-12T18:06:27;8.00;99.90
41060;DHT22;26811;53.160;8.202;2023-02-12T18:11:29;8.00;99.90
41060;DHT22;26811;53.160;8.202;2023-02-12T18:16:33;8.10;99.90
41060;DHT22;26811;53.160;8.202;2023-02-12T18:21:34;8.00;99.90
41060;DHT22;26811;53.160;8.202;2023-02-12T18:26:34;8.00;99.90
41060;DHT22;26811;53.160;8.202;2023-02-12T18:31:35;8.00;99.90
41060;DHT22;26811;53.160;8.202;2023-02-12T18:36:36;7.90;99.90
41060;DHT22;26811;53.160;8.202;2023-02-12T18:41:36;7.90;99.90
41060;DHT22;26811;53.160;8.202;2023-02-12T18:46:37;7.90;99.90
41060;DHT22;26811;53.160;8.202;2023-02-12T18:51:38;7.90;99.90
41060;DHT22;26811;53.160;8.202;2023-02-12T18:56:42;7.90;99.90
41060;DHT22;26811;53.160;8.202;2023-02-12T19:01:43;7.90;99.90
41060;DHT22;26811;53.160;8.202;2023-02-12T19:06:48;8.00;99.90
41060;DHT22;26811;53.160;8.202;2023-02-12T19:11:51;8.00;99.90
41060;DHT22;26811;53.160;8.202;2023-02-12T19:16:52;7.90;99.90
41060;DHT22;26811;53.160;8.202;2023-02-12T19:21:52;7.90;99.90
41060;DHT22;26811;53.160;8.202;2023-02-12T19:26:53;7.80;99.90
41060;DHT22;26811;53.160;8.202;2023-02-12T19:31:54;7.80;99.90
41060;DHT22;26811;53.160;8.202;2023-02-12T19:36:55;7.70;99.90
41060;DHT22;26811;53.160;8.202;2023-02-12T19:41:55;7.70;99.90
41060;DHT22;26811;53.160;8.202;2023-02-12T19:46:56;7.70;99.90
41060;DHT22;26811;53.160;8.202;2023-02-12T19:51:57;7.70;99.90
41060;DHT22;26811;53.160;8.202;2023-02-12T19:56:57;7.70;99.90
41060;DHT22;26811;53.160;8.202;2023-02-12T20:01:58;7.70;99.90
41060;DHT22;26811;53.160;8.202;2023-02-12T20:06:58;7.70;99.90
41060;DHT22;26811;53.160;8.202;2023-02-12T20:11:59;7.70;99.90
41060;DHT22;26811;53.160;8.202;2023-02-12T20:17:00;7.70;99.90
41060;DHT22;26811;53.160;8.202;2023-02-12T20:22:01;7.70;99.90
41060;DHT22;26811;53.160;8.202;2023-02-12T20:27:02;7.70;99.90
41060;DHT22;26811;53.160;8.202;2023-02-12T20:32:03;7.70;99.90
41060;DHT22;26811;53.160;8.202;2023-02-12T20:37:05;7.70;99.90
41060;DHT22;26811;53.160;8.202;2023-02-12T20:42:05;7.70;99.90
41060;DHT22;26811;53.160;8.202;2023-02-12T20:47:06;7.70;99.90
41060;DHT22;26811;53.160;8.202;2023-02-12T20:52:06;7.70;99.90
41060;DHT22;26811;53.160;8.202;2023-02-12T20:57:07;7.70;99.90
41060;DHT22;26811;53.160;8.202;2023-02-12T21:02:09;7.60;99.90
41060;DHT22;26811;53.160;8.202;2023-02-12T21:07:10;7.60;99.90
41060;DHT22;26811;53.160;8.202;2023-02-12T21:12:10;7.60;99.90
41060;DHT22;26811;53.160;8.202;2023-02-12T21:17:11;7.50;99.90
41060;DHT22;26811;53.160;8.202;2023-02-12T21:22:12;7.60;99.90
41060;DHT22;26811;53.160;8.202;2023-02-12T21:27:12;7.60;99.90
41060;DHT22;26811;53.160;8.202;2023-02-12T21:32:13;7.50;99.90
41060;DHT22;26811;53.160;8.202;2023-02-12T21:37:13;7.50;99.90
41060;DHT22;26811;53.160;8.202;2023-02-12T21:42:14;7.40;99.90
41060;DHT22;26811;53.160;8.202;2023-02-12T21:47:14;7.40;99.90
41060;DHT22;26811;53.160;8.202;2023-02-12T21:52:15;7.40;99.90
41060;DHT22;26811;53.160;8.202;2023-02-12T21:57:15;7.40;99.90
41060;DHT22;26811;53.160;8.202;2023-02-12T22:02:19;7.30;99.90
41060;DHT22;26811;53.160;8.202;2023-02-12T22:07:19;7.30;99.90
41060;DHT22;26811;53.160;8.202;2023-02-12T22:12:20;7.30;99.90
41060;DHT22;26811;53.160;8.202;2023-02-12T22:17:20;7.30;99.90
41060;DHT22;26811;53.160;8.202;2023-02-12T22:22:21;7.30;99.90
41060;DHT22;26811;53.160;8.202;2023-02-12T22:27:23;7.30;99.90
41060;DHT22;26811;53.160;8.202;2023-02-12T22:32:24;7.20;99.90
41060;DHT22;26811;53.160;8.202;2023-02-12T22:37:25;7.20;99.90
41060;DHT22;26811;53.160;8.202;2023-02-12T22:42:25;7.20;99.90
41060;DHT22;26811;53.160;8.202;2023-02-12T22:47:26;7.30;99.90
41060;DHT22;26811;53.160;8.202;2023-02-12T22:52:31;7.30;99.90
41060;DHT22;26811;53.160;8.202;2023-02-12T22:57:32;7.30;99.90
41060;DHT22;26811;53.160;8.202;2023-02-12T23:02:33;7.20;99.90
41060;DHT22;26811;53.160;8.202;2023-02-12T23:07:33;7.20;99.90
41060;DHT22;26811;53.160;8.202;2023-02-12T23:12:34;7.20;99.90
41060;DHT22;26811;53.160;8.202;2023-02-12T23:17:34;7.20;99.90
41060;DHT22;26811;53.160;8.202;2023-02-12T23:22:35;7.20;99.90
41060;DHT22;26811;53.160;8.202;2023-02-12T23:27:35;7.20;99.90
41060;DHT22;26811;53.160;8.202;2023-02-12T23:32:36;7.20;99.90
41060;DHT22;26811;53.160;8.202;2023-02-12T23:37:36;7.20;99.90
41060;DHT22;26811;53.160;8.202;2023-02-12T23:42:36;7.20;99.90
41060;DHT22;26811;53.160;8.202;2023-02-12T23:47:37;7.20;99.90
41060;DHT22;26811;53.160;8.202;2023-02-12T23:52:38;7.30;99.90
41060;DHT22;26811;53.160;8.202;2023-02-12T23:57:39;7.20;99.90
